createdAt,value
2023-05-08T00:00:56.867Z,95059.00
2023-05-08T00:01:56.864Z,95059.00
2023-05-08T00:02:57.042Z,95053.00
2023-05-08T00:03:56.975Z,95059.00
2023-05-08T00:04:56.979Z,95055.00
2023-05-08T00:05:56.893Z,95055.00
2023-05-08T00:06:56.899Z,95055.00
2023-05-08T00:07:56.911Z,95053.00
2023-05-08T00:08:56.862Z,95053.00
2023-05-08T00:09:56.879Z,95053.00
2023-05-08T00:10:56.866Z,95053.00
2023-05-08T00:11:56.895Z,95055.00
2023-05-08T00:12:56.915Z,95057.00
2023-05-08T00:13:56.847Z,95055.00
2023-05-08T00:14:56.855Z,95053.00
2023-05-08T00:15:56.851Z,95053.00
2023-05-08T00:16:56.966Z,95055.00
2023-05-08T00:17:56.907Z,95053.00
2023-05-08T00:18:56.876Z,95051.00
2023-05-08T00:19:56.883Z,95053.00
2023-05-08T00:20:56.894Z,95055.00
2023-05-08T00:21:56.849Z,95055.00
2023-05-08T00:22:56.849Z,95055.00
2023-05-08T00:23:56.872Z,95055.00
2023-05-08T00:24:56.861Z,95055.00
2023-05-08T00:25:56.872Z,95055.00
2023-05-08T00:26:56.880Z,95053.00
2023-05-08T00:27:56.841Z,95053.00
2023-05-08T00:28:56.849Z,95053.00
2023-05-08T00:29:56.848Z,95053.00
2023-05-08T00:30:56.860Z,95055.00
2023-05-08T00:31:56.896Z,95051.00
2023-05-08T00:32:56.958Z,95051.00
2023-05-08T00:33:56.819Z,95053.00
2023-05-08T00:34:56.851Z,95053.00
2023-05-08T00:35:56.830Z,95051.00
2023-05-08T00:36:56.837Z,95051.00
2023-05-08T00:37:56.859Z,95055.00
2023-05-08T00:38:56.864Z,95055.00
2023-05-08T00:39:56.859Z,95055.00
2023-05-08T00:40:56.821Z,95059.00
2023-05-08T00:41:56.833Z,95057.00
2023-05-08T00:42:56.840Z,95057.00
2023-05-08T00:43:56.845Z,95059.00
2023-05-08T00:44:56.853Z,95059.00
2023-05-08T00:45:56.895Z,95061.00
2023-05-08T00:46:56.875Z,95063.00
2023-05-08T00:47:56.855Z,95064.00
2023-05-08T00:48:56.816Z,95064.00
2023-05-08T00:49:56.830Z,95066.00
2023-05-08T00:50:56.837Z,95066.00
2023-05-08T00:51:56.902Z,95063.00
2023-05-08T00:52:56.860Z,95066.00
2023-05-08T00:53:56.861Z,95068.00
2023-05-08T00:54:56.857Z,95066.00
2023-05-08T00:55:56.819Z,95068.00
2023-05-08T00:56:56.835Z,95070.00
2023-05-08T00:57:56.837Z,95074.00
2023-05-08T00:58:56.856Z,95074.00
2023-05-08T00:59:56.851Z,95072.00
2023-05-08T01:00:56.867Z,95070.00
2023-05-08T01:01:56.950Z,95070.00
2023-05-08T01:02:56.948Z,95068.00
2023-05-08T01:03:56.934Z,95072.00
2023-05-08T01:04:56.831Z,95072.00
2023-05-08T01:05:56.905Z,95070.00
2023-05-08T01:06:57.417Z,95074.00
2023-05-08T01:07:56.917Z,95072.00
2023-05-08T01:08:56.921Z,95074.00
2023-05-08T01:09:56.864Z,95076.00
2023-05-08T01:10:56.923Z,95076.00
2023-05-08T01:11:56.966Z,95070.00
2023-05-08T01:12:56.962Z,95072.00
2023-05-08T01:13:56.916Z,95070.00
2023-05-08T01:14:56.908Z,95074.00
2023-05-08T01:15:56.959Z,95072.00
2023-05-08T01:16:56.940Z,95076.00
2023-05-08T01:17:57.018Z,95076.00
2023-05-08T01:18:57.012Z,95080.00
2023-05-08T01:19:56.998Z,95076.00
2023-05-08T01:20:56.996Z,95082.00
2023-05-08T01:21:57.009Z,95078.00
2023-05-08T01:22:57.007Z,95080.00
2023-05-08T01:23:57.027Z,95082.00
2023-05-08T01:24:57.028Z,95084.00
2023-05-08T01:25:57.034Z,95084.00
2023-05-08T01:26:57.038Z,95082.00
2023-05-08T01:27:57.057Z,95086.00
2023-05-08T01:28:57.050Z,95082.00
2023-05-08T01:29:57.079Z,95086.00
2023-05-08T01:30:57.084Z,95086.00
2023-05-08T01:31:57.085Z,95086.00
2023-05-08T01:32:57.256Z,95086.00
2023-05-08T01:33:57.137Z,95086.00
2023-05-08T01:34:57.102Z,95088.00
2023-05-08T01:35:57.119Z,95084.00
2023-05-08T01:36:57.112Z,95086.00
2023-05-08T01:37:57.190Z,95086.00
2023-05-08T01:38:57.175Z,95084.00
2023-05-08T01:39:57.174Z,95086.00
2023-05-08T01:40:57.198Z,95086.00
2023-05-08T01:41:57.254Z,95084.00
2023-05-08T01:42:57.200Z,95086.00
2023-05-08T01:43:57.198Z,95086.00
2023-05-08T01:44:57.207Z,95086.00
2023-05-08T01:45:57.218Z,95090.00
2023-05-08T01:46:57.280Z,95090.00
2023-05-08T01:47:57.236Z,95090.00
2023-05-08T01:48:57.308Z,95090.00
2023-05-08T01:49:57.252Z,95090.00
2023-05-08T01:50:57.249Z,95092.00
2023-05-08T01:51:57.315Z,95092.00
2023-05-08T01:52:57.322Z,95094.00
2023-05-08T01:53:57.323Z,95094.00
2023-05-08T01:54:57.357Z,95094.00
2023-05-08T01:55:57.349Z,95092.00
2023-05-08T01:56:57.353Z,95096.00
2023-05-08T01:57:57.356Z,95094.00
2023-05-08T01:58:57.334Z,95094.00
2023-05-08T01:59:57.382Z,95092.00
2023-05-08T02:00:57.351Z,95090.00
2023-05-08T02:01:57.439Z,95094.00
2023-05-08T02:02:57.481Z,95092.00
2023-05-08T02:03:57.416Z,95090.00
2023-05-08T02:04:57.407Z,95090.00
2023-05-08T02:05:57.430Z,95092.00
2023-05-08T02:06:57.425Z,95090.00
2023-05-08T02:07:57.449Z,95090.00
2023-05-08T02:08:57.485Z,95086.00
2023-05-08T02:09:57.433Z,95086.00
2023-05-08T02:10:57.492Z,95086.00
2023-05-08T02:11:57.977Z,95086.00
2023-05-08T02:12:57.554Z,95088.00
2023-05-08T02:13:57.515Z,95088.00
2023-05-08T02:14:57.568Z,95088.00
2023-05-08T02:15:57.528Z,95084.00
2023-05-08T02:16:57.724Z,95086.00
2023-05-08T02:17:57.557Z,95086.00
2023-05-08T02:18:57.553Z,95086.00
2023-05-08T02:19:57.555Z,95082.00
2023-05-08T02:20:57.568Z,95086.00
2023-05-08T02:21:57.583Z,95086.00
2023-05-08T02:22:57.579Z,95086.00
2023-05-08T02:23:57.579Z,95086.00
2023-05-08T02:24:57.647Z,95086.00
2023-05-08T02:25:57.654Z,95086.00
2023-05-08T02:26:57.660Z,95080.00
2023-05-08T02:27:57.672Z,95080.00
2023-05-08T02:28:57.663Z,95082.00
2023-05-08T02:29:57.701Z,95080.00
2023-05-08T02:30:57.686Z,95080.00
2023-05-08T02:31:57.741Z,95078.00
2023-05-08T02:32:59.732Z,95078.00
2023-05-08T02:33:57.708Z,95076.00
2023-05-08T02:35:03.196Z,95076.00
2023-05-08T02:35:58.684Z,95078.00
2023-05-08T02:36:57.774Z,95074.00
2023-05-08T02:37:57.680Z,95076.00
2023-05-08T02:38:57.680Z,95078.00
2023-05-08T02:39:57.712Z,95076.00
2023-05-08T02:40:57.691Z,95076.00
2023-05-08T02:41:57.761Z,95078.00
2023-05-08T02:42:57.676Z,95078.00
2023-05-08T02:43:57.678Z,95080.00
2023-05-08T02:44:57.632Z,95082.00
2023-05-08T02:45:57.654Z,95080.00
2023-05-08T02:46:57.653Z,95084.00
2023-05-08T02:47:57.699Z,95084.00
2023-05-08T02:48:57.598Z,95086.00
2023-05-08T02:49:57.600Z,95082.00
2023-05-08T02:50:57.608Z,95084.00
2023-05-08T02:51:57.629Z,95084.00
2023-05-08T02:52:57.628Z,95084.00
2023-05-08T02:53:57.575Z,95082.00
2023-05-08T02:54:57.582Z,95084.00
2023-05-08T02:55:57.592Z,95082.00
2023-05-08T02:56:57.600Z,95082.00
2023-05-08T02:57:57.658Z,95080.00
2023-05-08T02:58:57.686Z,95080.00
2023-05-08T02:59:57.670Z,95082.00
2023-05-08T03:00:57.731Z,95082.00
2023-05-08T03:01:57.804Z,95080.00
2023-05-08T03:02:57.880Z,95080.00
2023-05-08T03:03:57.916Z,95080.00
2023-05-08T03:04:57.856Z,95078.00
2023-05-08T03:05:57.894Z,95082.00
2023-05-08T03:06:57.882Z,95078.00
2023-05-08T03:07:57.931Z,95078.00
2023-05-08T03:08:57.941Z,95076.00
2023-05-08T03:09:57.953Z,95074.00
2023-05-08T03:10:58.001Z,95076.00
2023-05-08T03:11:58.105Z,95072.00
2023-05-08T03:12:58.106Z,95074.00
2023-05-08T03:13:58.074Z,95074.00
2023-05-08T03:14:58.086Z,95074.00
2023-05-08T03:15:58.157Z,95074.00
2023-05-08T03:16:58.138Z,95074.00
2023-05-08T03:17:58.218Z,95072.00
2023-05-08T03:18:58.213Z,95072.00
2023-05-08T03:19:58.233Z,95074.00
2023-05-08T03:20:58.223Z,95076.00
2023-05-08T03:21:58.245Z,95076.00
2023-05-08T03:22:58.282Z,95080.00
2023-05-08T03:23:58.361Z,95078.00
2023-05-08T03:24:58.352Z,95076.00
2023-05-08T03:25:58.464Z,95078.00
2023-05-08T03:26:58.513Z,95078.00
2023-05-08T03:27:58.528Z,95076.00
2023-05-08T03:28:58.536Z,95076.00
2023-05-08T03:29:58.597Z,95072.00
2023-05-08T03:30:58.668Z,95076.00
2023-05-08T03:31:58.672Z,95072.00
2023-05-08T03:32:58.694Z,95072.00
2023-05-08T03:33:58.722Z,95074.00
2023-05-08T03:34:58.839Z,95074.00
2023-05-08T03:35:58.739Z,95076.00
2023-05-08T03:36:58.789Z,95076.00
2023-05-08T03:37:58.800Z,95078.00
2023-05-08T03:38:58.954Z,95080.00
2023-05-08T03:39:58.869Z,95080.00
2023-05-08T03:40:58.877Z,95076.00
2023-05-08T03:41:58.934Z,95078.00
2023-05-08T03:42:58.941Z,95078.00
2023-05-08T03:43:59.012Z,95082.00
2023-05-08T03:44:58.997Z,95082.00
2023-05-08T03:45:59.053Z,95082.00
2023-05-08T03:46:59.119Z,95084.00
2023-05-08T03:47:59.190Z,95084.00
2023-05-08T03:48:59.145Z,95088.00
2023-05-08T03:49:59.186Z,95086.00
2023-05-08T03:50:59.200Z,95090.00
2023-05-08T03:51:59.251Z,95088.00
2023-05-08T03:52:59.279Z,95092.00
2023-05-08T03:53:59.270Z,95092.00
2023-05-08T03:54:59.361Z,95094.00
2023-05-08T03:55:59.394Z,95094.00
2023-05-08T03:56:59.406Z,95094.00
2023-05-08T03:57:59.461Z,95092.00
2023-05-08T03:58:59.566Z,95094.00
2023-05-08T03:59:59.522Z,95094.00
2023-05-08T04:00:59.529Z,95094.00
2023-05-08T04:01:59.647Z,95094.00
2023-05-08T04:02:59.678Z,95096.00
2023-05-08T04:03:59.726Z,95098.00
2023-05-08T04:04:59.666Z,95094.00
2023-05-08T04:05:59.708Z,95098.00
2023-05-08T04:06:59.795Z,95100.00
2023-05-08T04:07:59.788Z,95100.00
2023-05-08T04:08:59.797Z,95100.00
2023-05-08T04:09:59.962Z,95102.00
2023-05-08T04:10:59.915Z,95104.00
2023-05-08T04:11:59.915Z,95104.00
2023-05-08T04:13:00.002Z,95106.00
2023-05-08T04:13:59.975Z,95108.00
2023-05-08T04:15:00.043Z,95110.00
2023-05-08T04:16:00.114Z,95108.00
2023-05-08T04:17:00.201Z,95110.00
2023-05-08T04:18:00.228Z,95110.00
2023-05-08T04:19:00.166Z,95111.00
2023-05-08T04:20:00.225Z,95110.00
2023-05-08T04:21:00.280Z,95113.00
2023-05-08T04:22:00.288Z,95115.00
2023-05-08T04:23:00.351Z,95113.00
2023-05-08T04:24:00.352Z,95117.00
2023-05-08T04:25:00.418Z,95117.00
2023-05-08T04:26:00.417Z,95115.00
2023-05-08T04:27:00.479Z,95119.00
2023-05-08T04:28:00.537Z,95119.00
2023-05-08T04:29:00.591Z,95119.00
2023-05-08T04:30:00.613Z,95117.00
2023-05-08T04:31:00.656Z,95119.00
2023-05-08T04:32:00.715Z,95121.00
2023-05-08T04:33:00.875Z,95123.00
2023-05-08T04:34:00.804Z,95117.00
2023-05-08T04:35:00.840Z,95119.00
2023-05-08T04:36:00.865Z,95119.00
2023-05-08T04:37:00.917Z,95119.00
2023-05-08T04:38:00.968Z,95123.00
2023-05-08T04:39:00.972Z,95119.00
2023-05-08T04:40:01.031Z,95123.00
2023-05-08T04:41:01.099Z,95121.00
2023-05-08T04:42:01.110Z,95121.00
2023-05-08T04:43:01.162Z,95125.00
2023-05-08T04:44:01.202Z,95125.00
2023-05-08T04:45:01.284Z,95127.00
2023-05-08T04:46:01.287Z,95127.00
2023-05-08T04:47:01.343Z,95131.00
2023-05-08T04:48:01.610Z,95129.00
2023-05-08T04:49:01.461Z,95129.00
2023-05-08T04:50:02.852Z,95131.00
2023-05-08T04:51:01.515Z,95135.00
2023-05-08T04:52:01.572Z,95131.00
2023-05-08T04:53:01.651Z,95129.00
2023-05-08T04:54:01.660Z,95129.00
2023-05-08T04:55:01.711Z,95135.00
2023-05-08T04:56:01.760Z,95133.00
2023-05-08T04:57:01.816Z,95135.00
2023-05-08T04:58:01.832Z,95133.00
2023-05-08T04:59:01.883Z,95131.00
2023-05-08T05:00:02.035Z,95131.00
2023-05-08T05:01:02.001Z,95133.00
2023-05-08T05:02:02.113Z,95135.00
2023-05-08T05:03:02.177Z,95135.00
2023-05-08T05:04:02.214Z,95133.00
2023-05-08T05:05:02.174Z,95135.00
2023-05-08T05:06:02.241Z,95137.00
2023-05-08T05:07:02.306Z,95141.00
2023-05-08T05:08:02.349Z,95141.00
2023-05-08T05:09:02.407Z,95141.00
2023-05-08T05:10:02.478Z,95149.00
2023-05-08T05:11:02.480Z,95151.00
2023-05-08T05:12:02.528Z,95151.00
2023-05-08T05:13:02.621Z,95149.00
2023-05-08T05:14:02.646Z,95153.00
2023-05-08T05:15:02.699Z,95151.00
2023-05-08T05:16:02.820Z,95157.00
2023-05-08T05:17:02.855Z,95153.00
2023-05-08T05:18:02.862Z,95157.00
2023-05-08T05:19:02.882Z,95155.00
2023-05-08T05:20:02.998Z,95157.00
2023-05-08T05:21:03.056Z,95157.00
2023-05-08T05:22:03.116Z,95157.00
2023-05-08T05:23:03.158Z,95159.00
2023-05-08T05:24:03.176Z,95159.00
2023-05-08T05:25:03.387Z,95161.00
2023-05-08T05:26:03.246Z,95159.00
2023-05-08T05:27:03.335Z,95163.00
2023-05-08T05:28:03.434Z,95163.00
2023-05-08T05:29:03.486Z,95164.00
2023-05-08T05:30:03.525Z,95163.00
2023-05-08T05:31:03.588Z,95164.00
2023-05-08T05:32:03.640Z,95166.00
2023-05-08T05:33:03.686Z,95166.00
2023-05-08T05:34:03.707Z,95166.00
2023-05-08T05:35:03.715Z,95170.00
2023-05-08T05:36:03.707Z,95170.00
2023-05-08T05:37:03.778Z,95170.00
2023-05-08T05:38:03.851Z,95170.00
2023-05-08T05:39:03.893Z,95170.00
2023-05-08T05:40:03.899Z,95172.00
2023-05-08T05:41:04.004Z,95170.00
2023-05-08T05:42:04.066Z,95170.00
2023-05-08T05:43:04.136Z,95170.00
2023-05-08T05:44:04.176Z,95168.00
2023-05-08T05:45:04.295Z,95170.00
2023-05-08T05:46:04.554Z,95170.00
2023-05-08T05:47:04.895Z,95170.00
2023-05-08T05:48:05.010Z,95172.00
2023-05-08T05:49:04.996Z,95172.00
2023-05-08T05:50:04.991Z,95174.00
2023-05-08T05:51:05.050Z,95174.00
2023-05-08T05:52:05.118Z,95174.00
2023-05-08T05:53:05.161Z,95178.00
2023-05-08T05:54:05.113Z,95174.00
2023-05-08T05:55:05.118Z,95178.00
2023-05-08T05:56:05.120Z,95178.00
2023-05-08T05:57:05.200Z,95178.00
2023-05-08T05:58:05.187Z,95178.00
2023-05-08T05:59:05.294Z,95178.00
2023-05-08T06:00:05.255Z,95182.00
2023-05-08T06:01:05.272Z,95182.00
2023-05-08T06:02:05.369Z,95182.00
2023-05-08T06:03:06.090Z,95184.00
2023-05-08T06:04:05.483Z,95182.00
2023-05-08T06:05:05.296Z,95182.00
2023-05-08T06:06:05.307Z,95182.00
2023-05-08T06:07:05.324Z,95186.00
2023-05-08T06:08:05.307Z,95184.00
2023-05-08T06:09:05.319Z,95190.00
2023-05-08T06:10:05.343Z,95190.00
2023-05-08T06:11:05.324Z,95190.00
2023-05-08T06:12:05.336Z,95188.00
2023-05-08T06:13:05.448Z,95188.00
2023-05-08T06:14:05.376Z,95190.00
2023-05-08T06:15:05.320Z,95188.00
2023-05-08T06:16:05.319Z,95190.00
2023-05-08T06:17:05.383Z,95188.00
2023-05-08T06:18:05.363Z,95190.00
2023-05-08T06:19:05.349Z,95192.00
2023-05-08T06:20:05.619Z,95192.00
2023-05-08T06:21:05.318Z,95194.00
2023-05-08T06:22:05.365Z,95192.00
2023-05-08T06:23:05.307Z,95188.00
2023-05-08T06:24:05.383Z,95192.00
2023-05-08T06:25:05.326Z,95196.00
2023-05-08T06:26:05.348Z,95194.00
2023-05-08T06:27:05.341Z,95196.00
2023-05-08T06:28:05.404Z,95196.00
2023-05-08T06:29:05.411Z,95196.00
2023-05-08T06:30:05.571Z,95196.00
2023-05-08T06:31:05.616Z,95200.00
2023-05-08T06:32:05.529Z,95198.00
2023-05-08T06:33:05.554Z,95194.00
2023-05-08T06:34:05.550Z,95202.00
2023-05-08T06:35:05.617Z,95202.00
2023-05-08T06:36:05.702Z,95198.00
2023-05-08T06:37:05.711Z,95200.00
2023-05-08T06:38:05.819Z,95196.00
2023-05-08T06:39:05.898Z,95202.00
2023-05-08T06:40:12.140Z,95202.00
2023-05-08T06:41:06.901Z,95202.00
2023-05-08T06:42:06.113Z,95202.00
2023-05-08T06:43:05.863Z,95202.00
2023-05-08T06:44:06.587Z,95204.00
2023-05-08T06:45:05.896Z,95206.00
2023-05-08T06:46:05.855Z,95208.00
2023-05-08T06:47:05.997Z,95204.00
2023-05-08T06:48:05.905Z,95204.00
2023-05-08T06:49:05.851Z,95204.00
2023-05-08T06:50:05.810Z,95204.00
2023-05-08T06:51:05.826Z,95204.00
2023-05-08T06:52:06.842Z,95206.00
2023-05-08T06:53:05.928Z,95206.00
2023-05-08T06:54:05.782Z,95202.00
2023-05-08T06:55:05.791Z,95204.00
2023-05-08T06:56:05.846Z,95208.00
2023-05-08T06:57:05.750Z,95208.00
2023-05-08T06:58:06.578Z,95206.00
2023-05-08T06:59:08.782Z,95208.00
2023-05-08T07:00:05.841Z,95206.00
2023-05-08T07:01:05.764Z,95204.00
2023-05-08T07:02:05.842Z,95206.00
2023-05-08T07:03:05.850Z,95204.00
2023-05-08T07:04:05.777Z,95204.00
2023-05-08T07:05:05.909Z,95204.00
2023-05-08T07:06:05.786Z,95202.00
2023-05-08T07:07:05.754Z,95202.00
2023-05-08T07:08:05.847Z,95204.00
2023-05-08T07:09:05.737Z,95202.00
2023-05-08T07:10:07.235Z,95204.00
2023-05-08T07:11:05.705Z,95206.00
2023-05-08T07:12:05.806Z,95204.00
2023-05-08T07:13:05.706Z,95206.00
2023-05-08T07:14:05.703Z,95206.00
2023-05-08T07:15:17.865Z,95208.00
2023-05-08T07:16:06.788Z,95208.00
2023-05-08T07:17:05.775Z,95208.00
2023-05-08T07:18:05.965Z,95208.00
2023-05-08T07:19:05.784Z,95206.00
2023-05-08T07:20:06.024Z,95208.00
2023-05-08T07:21:05.719Z,95208.00
2023-05-08T07:22:05.993Z,95210.00
2023-05-08T07:23:05.666Z,95211.00
2023-05-08T07:24:05.694Z,95211.00
2023-05-08T07:25:05.744Z,95211.00
2023-05-08T07:26:05.808Z,95206.00
2023-05-08T07:27:05.869Z,95210.00
2023-05-08T07:28:05.911Z,95211.00
2023-05-08T07:29:05.987Z,95211.00
2023-05-08T07:30:06.091Z,95211.00
2023-05-08T07:31:06.249Z,95211.00
2023-05-08T07:32:06.244Z,95210.00
2023-05-08T07:33:06.271Z,95211.00
2023-05-08T07:34:06.240Z,95211.00
2023-05-08T07:35:07.744Z,95211.00
2023-05-08T07:36:06.283Z,95211.00
2023-05-08T07:37:06.243Z,95210.00
2023-05-08T07:38:06.241Z,95210.00
2023-05-08T07:39:06.214Z,95211.00
2023-05-08T07:40:06.222Z,95213.00
2023-05-08T07:41:06.189Z,95213.00
2023-05-08T07:42:06.162Z,95211.00
2023-05-08T07:43:06.274Z,95210.00
2023-05-08T07:44:06.172Z,95211.00
2023-05-08T07:45:06.190Z,95211.00
2023-05-08T07:46:06.138Z,95211.00
2023-05-08T07:47:06.269Z,95215.00
2023-05-08T07:48:06.165Z,95211.00
2023-05-08T07:49:06.120Z,95217.00
2023-05-08T07:50:06.120Z,95217.00
2023-05-08T07:51:06.131Z,95219.00
2023-05-08T07:52:06.141Z,95219.00
2023-05-08T07:53:06.125Z,95219.00
2023-05-08T07:54:06.119Z,95221.00
2023-05-08T07:55:06.065Z,95221.00
2023-05-08T07:56:06.107Z,95219.00
2023-05-08T07:57:06.129Z,95221.00
2023-05-08T07:58:06.060Z,95217.00
2023-05-08T07:59:06.070Z,95217.00
2023-05-08T08:00:06.074Z,95219.00
2023-05-08T08:01:06.088Z,95217.00
2023-05-08T08:02:06.114Z,95215.00
2023-05-08T08:03:06.068Z,95215.00
2023-05-08T08:04:06.212Z,95215.00
2023-05-08T08:05:06.008Z,95217.00
2023-05-08T08:06:06.016Z,95217.00
2023-05-08T08:07:06.116Z,95217.00
2023-05-08T08:08:06.071Z,95217.00
2023-05-08T08:09:06.051Z,95217.00
2023-05-08T08:10:05.973Z,95219.00
2023-05-08T08:11:06.048Z,95219.00
2023-05-08T08:12:06.010Z,95219.00
2023-05-08T08:13:05.995Z,95219.00
2023-05-08T08:14:06.071Z,95217.00
2023-05-08T08:15:06.073Z,95219.00
2023-05-08T08:16:06.074Z,95221.00
2023-05-08T08:17:06.150Z,95225.00
2023-05-08T08:18:06.150Z,95219.00
2023-05-08T08:19:07.164Z,95223.00
2023-05-08T08:20:06.222Z,95223.00
2023-05-08T08:21:06.301Z,95223.00
2023-05-08T08:22:06.262Z,95221.00
2023-05-08T08:23:06.439Z,95221.00
2023-05-08T08:24:06.402Z,95223.00
2023-05-08T08:25:06.305Z,95221.00
2023-05-08T08:26:06.459Z,95219.00
2023-05-08T08:27:06.401Z,95221.00
2023-05-08T08:28:06.403Z,95219.00
2023-05-08T08:29:06.400Z,95217.00
2023-05-08T08:30:16.877Z,95219.00
2023-05-08T08:31:07.577Z,95221.00
2023-05-08T08:32:06.453Z,95221.00
2023-05-08T08:33:06.503Z,95221.00
2023-05-08T08:34:06.438Z,95221.00
2023-05-08T08:35:06.489Z,95217.00
2023-05-08T08:36:06.437Z,95217.00
2023-05-08T08:37:06.422Z,95221.00
2023-05-08T08:38:06.458Z,95221.00
2023-05-08T08:39:06.912Z,95219.00
2023-05-08T08:40:06.385Z,95221.00
2023-05-08T08:41:06.418Z,95221.00
2023-05-08T08:42:06.430Z,95219.00
2023-05-08T08:43:06.482Z,95217.00
2023-05-08T08:44:06.426Z,95219.00
2023-05-08T08:45:06.355Z,95221.00
2023-05-08T08:46:06.454Z,95223.00
2023-05-08T08:47:06.535Z,95223.00
2023-05-08T08:48:06.544Z,95221.00
2023-05-08T08:49:06.556Z,95219.00
2023-05-08T08:50:07.140Z,95217.00
2023-05-08T08:51:06.752Z,95219.00
2023-05-08T08:52:06.673Z,95215.00
2023-05-08T08:53:06.686Z,95219.00
2023-05-08T08:54:14.688Z,95215.00
2023-05-08T08:55:06.864Z,95217.00
2023-05-08T08:56:06.693Z,95217.00
2023-05-08T08:57:06.702Z,95213.00
2023-05-08T08:58:06.682Z,95215.00
2023-05-08T08:59:06.776Z,95217.00
2023-05-08T09:00:07.020Z,95213.00
2023-05-08T09:01:06.638Z,95215.00
2023-05-08T09:02:06.687Z,95217.00
2023-05-08T09:03:06.700Z,95215.00
2023-05-08T09:04:06.725Z,95215.00
2023-05-08T09:05:07.777Z,95217.00
2023-05-08T09:06:06.772Z,95217.00
2023-05-08T09:07:06.799Z,95219.00
2023-05-08T09:08:06.975Z,95217.00
2023-05-08T09:09:06.927Z,95217.00
2023-05-08T09:10:07.017Z,95217.00
2023-05-08T09:11:07.006Z,95217.00
2023-05-08T09:12:07.640Z,95217.00
2023-05-08T09:13:07.232Z,95219.00
2023-05-08T09:14:07.123Z,95219.00
2023-05-08T09:15:07.201Z,95221.00
2023-05-08T09:16:07.219Z,95215.00
2023-05-08T09:17:07.270Z,95217.00
2023-05-08T09:18:07.452Z,95215.00
2023-05-08T09:19:07.332Z,95217.00
2023-05-08T09:20:07.396Z,95213.00
2023-05-08T09:21:07.379Z,95211.00
2023-05-08T09:22:07.665Z,95215.00
2023-05-08T09:23:07.640Z,95213.00
2023-05-08T09:24:07.609Z,95215.00
2023-05-08T09:25:07.591Z,95213.00
2023-05-08T09:26:07.655Z,95215.00
2023-05-08T09:27:07.700Z,95215.00
2023-05-08T09:28:07.611Z,95217.00
2023-05-08T09:29:07.729Z,95215.00
2023-05-08T09:30:07.698Z,95213.00
2023-05-08T09:31:07.639Z,95215.00
2023-05-08T09:32:07.734Z,95213.00
2023-05-08T09:33:07.846Z,95213.00
2023-05-08T09:34:07.744Z,95213.00
2023-05-08T09:35:07.757Z,95213.00
2023-05-08T09:36:07.686Z,95215.00
2023-05-08T09:37:07.787Z,95213.00
2023-05-08T09:38:07.810Z,95215.00
2023-05-08T09:39:07.887Z,95211.00
2023-05-08T09:40:08.197Z,95211.00
2023-05-08T09:41:07.898Z,95213.00
2023-05-08T09:42:09.067Z,95213.00
2023-05-08T09:43:08.052Z,95213.00
2023-05-08T09:44:08.021Z,95217.00
2023-05-08T09:45:07.946Z,95213.00
2023-05-08T09:46:07.962Z,95215.00
2023-05-08T09:47:11.119Z,95217.00
2023-05-08T09:48:08.109Z,95219.00
2023-05-08T09:49:08.832Z,95221.00
2023-05-08T09:50:08.194Z,95219.00
2023-05-08T09:51:08.161Z,95225.00
2023-05-08T09:52:07.985Z,95217.00
2023-05-08T09:53:07.903Z,95215.00
2023-05-08T09:54:08.018Z,95219.00
2023-05-08T09:55:07.884Z,95221.00
2023-05-08T09:56:08.136Z,95219.00
2023-05-08T09:57:07.949Z,95217.00
2023-05-08T09:58:07.934Z,95221.00
2023-05-08T09:59:07.910Z,95219.00
2023-05-08T10:00:07.845Z,95217.00
2023-05-08T10:01:07.933Z,95221.00
2023-05-08T10:02:07.832Z,95221.00
2023-05-08T10:03:07.932Z,95221.00
2023-05-08T10:04:07.906Z,95221.00
2023-05-08T10:05:07.965Z,95219.00
2023-05-08T10:06:08.167Z,95219.00
2023-05-08T10:07:07.878Z,95217.00
2023-05-08T10:08:07.821Z,95219.00
2023-05-08T10:09:07.817Z,95213.00
2023-05-08T10:10:07.937Z,95215.00
2023-05-08T10:11:07.855Z,95217.00
2023-05-08T10:12:07.912Z,95215.00
2023-05-08T10:13:07.867Z,95215.00
2023-05-08T10:14:07.866Z,95213.00
2023-05-08T10:15:07.747Z,95213.00
2023-05-08T10:16:07.770Z,95210.00
2023-05-08T10:17:07.801Z,95211.00
2023-05-08T10:18:07.823Z,95208.00
2023-05-08T10:19:07.763Z,95211.00
2023-05-08T10:20:07.801Z,95208.00
2023-05-08T10:21:07.760Z,95206.00
2023-05-08T10:22:07.715Z,95206.00
2023-05-08T10:23:07.702Z,95206.00
2023-05-08T10:24:07.717Z,95206.00
2023-05-08T10:25:08.700Z,95204.00
2023-05-08T10:26:07.724Z,95202.00
2023-05-08T10:27:08.048Z,95200.00
2023-05-08T10:28:08.723Z,95202.00
2023-05-08T10:29:07.726Z,95200.00
2023-05-08T10:30:07.732Z,95202.00
2023-05-08T10:31:07.773Z,95202.00
2023-05-08T10:32:07.734Z,95204.00
2023-05-08T10:33:07.834Z,95198.00
2023-05-08T10:34:07.685Z,95196.00
2023-05-08T10:35:07.677Z,95198.00
2023-05-08T10:36:07.749Z,95194.00
2023-05-08T10:37:07.703Z,95192.00
2023-05-08T10:38:07.787Z,95190.00
2023-05-08T10:39:07.788Z,95188.00
2023-05-08T10:40:07.942Z,95184.00
2023-05-08T10:41:08.674Z,95180.00
2023-05-08T10:42:08.013Z,95180.00
2023-05-08T10:43:07.952Z,95180.00
2023-05-08T10:44:08.140Z,95182.00
2023-05-08T10:45:08.175Z,95184.00
2023-05-08T10:46:08.247Z,95182.00
2023-05-08T10:47:08.266Z,95182.00
2023-05-08T10:48:08.526Z,95180.00
2023-05-08T10:49:08.590Z,95178.00
2023-05-08T10:50:08.573Z,95178.00
2023-05-08T10:51:08.620Z,95174.00
2023-05-08T10:52:08.695Z,95180.00
2023-05-08T10:53:08.702Z,95176.00
2023-05-08T10:54:08.811Z,95174.00
2023-05-08T10:55:08.810Z,95174.00
2023-05-08T10:56:08.776Z,95174.00
2023-05-08T10:57:08.838Z,95170.00
2023-05-08T10:58:08.871Z,95168.00
2023-05-08T10:59:09.081Z,95170.00
2023-05-08T11:00:08.955Z,95170.00
2023-05-08T11:01:09.098Z,95170.00
2023-05-08T11:02:09.072Z,95166.00
2023-05-08T11:03:19.969Z,95166.00
2023-05-08T11:04:10.169Z,95164.00
2023-05-08T11:05:08.985Z,95164.00
2023-05-08T11:06:09.113Z,95164.00
2023-05-08T11:07:08.922Z,95164.00
2023-05-08T11:08:09.236Z,95164.00
2023-05-08T11:09:09.056Z,95164.00
2023-05-08T11:10:08.972Z,95163.00
2023-05-08T11:11:08.924Z,95161.00
2023-05-08T11:12:08.963Z,95163.00
2023-05-08T11:13:08.916Z,95161.00
2023-05-08T11:14:08.979Z,95159.00
2023-05-08T11:15:08.876Z,95155.00
2023-05-08T11:16:08.918Z,95159.00
2023-05-08T11:17:08.911Z,95155.00
2023-05-08T11:18:09.052Z,95155.00
2023-05-08T11:19:08.885Z,95157.00
2023-05-08T11:20:08.906Z,95151.00
2023-05-08T11:21:08.860Z,95153.00
2023-05-08T11:22:08.882Z,95151.00
2023-05-08T11:23:09.243Z,95141.00
2023-05-08T11:24:09.223Z,95141.00
2023-05-08T11:25:08.901Z,95139.00
2023-05-08T11:26:08.873Z,95137.00
2023-05-08T11:27:08.922Z,95139.00
2023-05-08T11:28:08.933Z,95133.00
2023-05-08T11:29:09.088Z,95133.00
2023-05-08T11:30:09.059Z,95133.00
2023-05-08T11:31:09.166Z,95133.00
2023-05-08T11:32:09.206Z,95129.00
2023-05-08T11:33:09.250Z,95127.00
2023-05-08T11:34:09.281Z,95129.00
2023-05-08T11:35:09.301Z,95129.00
2023-05-08T11:36:09.294Z,95127.00
2023-05-08T11:37:09.316Z,95127.00
2023-05-08T11:38:09.301Z,95127.00
2023-05-08T11:39:09.330Z,95121.00
2023-05-08T11:40:09.356Z,95123.00
2023-05-08T11:41:09.378Z,95121.00
2023-05-08T11:42:09.495Z,95121.00
2023-05-08T11:43:09.551Z,95119.00
2023-05-08T11:44:09.653Z,95121.00
2023-05-08T11:45:09.662Z,95121.00